PRIVATE WETTERSTATION BILLIGHEIM-ALLFELD                       ZURCK
Wetterdaten: Sonntag, 17.07.2016
Datum Zeit Temp. A. Temp. A. min Temp. A. max Feuchte A. Luftdruck Regen Wind Richtung Richtung Sonnenschein ET Solar Taupunkt Windchill Windben Empfang
17.07.2016 00:00 18,0 C 17,9 C 18,0 C 79 % 1022,7 hPa 0,0 l/m 0,0 km/h (0 Bft) NW 315 0 min 0,025 mm 0 W/m 14,3 C 18,0 C 1,6 km/h (1 Bft) 98 %
17.07.2016 00:10 17,9 C 17,9 C 18,0 C 80 % 1022,7 hPa 0,0 l/m 0,0 km/h (0 Bft) N 0 0 min 0,000 mm 0 W/m 14,4 C 17,9 C 0,0 km/h (0 Bft) 96 %
17.07.2016 00:20 17,7 C 17,7 C 17,9 C 80 % 1022,7 hPa 0,0 l/m 0,0 km/h (0 Bft) N 0 0 min 0,000 mm 0 W/m 14,2 C 17,7 C 0,0 km/h (0 Bft) 98 %
17.07.2016 00:30 17,4 C 17,4 C 17,7 C 80 % 1022,5 hPa 0,0 l/m 0,0 km/h (0 Bft) NW 315 0 min 0,000 mm 0 W/m 13,9 C 17,4 C 1,6 km/h (1 Bft) 97 %
17.07.2016 00:40 17,2 C 17,2 C 17,4 C 82 % 1022,6 hPa 0,0 l/m 0,0 km/h (0 Bft) NW 315 0 min 0,000 mm 0 W/m 14,1 C 17,2 C 3,2 km/h (1 Bft) 98 %
17.07.2016 00:50 16,9 C 16,9 C 17,2 C 83 % 1022,5 hPa 0,0 l/m 0,0 km/h (0 Bft) N 0 0 min 0,000 mm 0 W/m 14,0 C 16,9 C 0,0 km/h (0 Bft) 98 %
17.07.2016 01:00 16,7 C 16,7 C 16,9 C 84 % 1022,6 hPa 0,0 l/m 0,0 km/h (0 Bft) N 0 0 min 0,025 mm 0 W/m 14,0 C 16,7 C 0,0 km/h (0 Bft) 97 %
17.07.2016 01:10 16,3 C 16,3 C 16,7 C 84 % 1022,4 hPa 0,0 l/m 0,0 km/h (0 Bft) N 0 0 min 0,000 mm 0 W/m 13,6 C 16,3 C 0,0 km/h (0 Bft) 98 %
17.07.2016 01:20 16,1 C 16,1 C 16,4 C 85 % 1022,5 hPa 0,0 l/m 0,0 km/h (0 Bft) N 0 0 min 0,000 mm 0 W/m 13,6 C 16,1 C 0,0 km/h (0 Bft) 97 %
17.07.2016 01:30 15,9 C 15,9 C 16,1 C 86 % 1022,4 hPa 0,0 l/m 0,0 km/h (0 Bft) N 0 0 min 0,000 mm 0 W/m 13,6 C 15,9 C 0,0 km/h (0 Bft) 98 %
17.07.2016 01:40 15,7 C 15,7 C 15,9 C 86 % 1022,4 hPa 0,0 l/m 0,0 km/h (0 Bft) N 0 0 min 0,000 mm 0 W/m 13,4 C 15,7 C 0,0 km/h (0 Bft) 97 %
17.07.2016 01:50 15,5 C 15,5 C 15,7 C 86 % 1022,5 hPa 0,0 l/m 0,0 km/h (0 Bft) N 0 0 min 0,000 mm 0 W/m 13,2 C 15,5 C 0,0 km/h (0 Bft) 97 %
17.07.2016 02:00 15,3 C 15,3 C 15,5 C 87 % 1022,5 hPa 0,0 l/m 0,0 km/h (0 Bft) N 0 0 min 0,000 mm 0 W/m 13,1 C 15,3 C 0,0 km/h (0 Bft) 98 %
17.07.2016 02:10 15,1 C 15,1 C 15,3 C 87 % 1022,4 hPa 0,0 l/m 0,0 km/h (0 Bft) N 0 0 min 0,000 mm 0 W/m 13,0 C 15,1 C 0,0 km/h (0 Bft) 97 %
17.07.2016 02:20 15,1 C 15,1 C 15,1 C 87 % 1022,4 hPa 0,0 l/m 0,0 km/h (0 Bft) N 0 0 min 0,000 mm 0 W/m 13,0 C 15,1 C 0,0 km/h (0 Bft) 98 %
17.07.2016 02:30 14,8 C 14,8 C 15,1 C 87 % 1022,3 hPa 0,0 l/m 0,0 km/h (0 Bft) N 0 0 min 0,000 mm 0 W/m 12,7 C 14,8 C 0,0 km/h (0 Bft) 97 %
17.07.2016 02:40 14,6 C 14,6 C 14,8 C 88 % 1022,3 hPa 0,0 l/m 0,0 km/h (0 Bft) N 0 0 min 0,000 mm 0 W/m 12,6 C 14,6 C 0,0 km/h (0 Bft) 98 %
17.07.2016 02:50 14,5 C 14,5 C 14,6 C 88 % 1022,4 hPa 0,0 l/m 0,0 km/h (0 Bft) N 0 0 min 0,000 mm 0 W/m 12,5 C 14,5 C 0,0 km/h (0 Bft) 97 %
17.07.2016 03:00 14,4 C 14,4 C 14,5 C 89 % 1022,2 hPa 0,0 l/m 0,0 km/h (0 Bft) N 0 0 min 0,000 mm 0 W/m 12,6 C 14,4 C 0,0 km/h (0 Bft) 97 %
17.07.2016 03:10 14,3 C 14,3 C 14,4 C 89 % 1022,2 hPa 0,0 l/m 0,0 km/h (0 Bft) N 0 0 min 0,000 mm 0 W/m 12,5 C 14,3 C 0,0 km/h (0 Bft) 97 %
17.07.2016 03:20 14,1 C 14,1 C 14,3 C 89 % 1022,1 hPa 0,0 l/m 0,0 km/h (0 Bft) N 0 0 min 0,000 mm 0 W/m 12,3 C 14,1 C 0,0 km/h (0 Bft) 97 %
17.07.2016 03:30 14,0 C 14,0 C 14,1 C 89 % 1022,0 hPa 0,0 l/m 0,0 km/h (0 Bft) N 0 0 min 0,000 mm 0 W/m 12,2 C 14,0 C 0,0 km/h (0 Bft) 98 %
17.07.2016 03:40 13,9 C 13,9 C 14,0 C 89 % 1021,9 hPa 0,0 l/m 0,0 km/h (0 Bft) N 0 0 min 0,000 mm 0 W/m 12,1 C 13,9 C 0,0 km/h (0 Bft) 97 %
17.07.2016 03:50 13,9 C 13,9 C 13,9 C 89 % 1021,8 hPa 0,0 l/m 0,0 km/h (0 Bft) N 0 0 min 0,000 mm 0 W/m 12,1 C 13,9 C 0,0 km/h (0 Bft) 98 %
17.07.2016 04:00 13,8 C 13,8 C 13,9 C 89 % 1021,8 hPa 0,0 l/m 0,0 km/h (0 Bft) N 0 0 min 0,000 mm 0 W/m 12,0 C 13,8 C 0,0 km/h (0 Bft) 97 %
17.07.2016 04:10 13,8 C 13,8 C 13,8 C 89 % 1021,6 hPa 0,0 l/m 0,0 km/h (0 Bft) N 0 0 min 0,000 mm 0 W/m 12,0 C 13,8 C 0,0 km/h (0 Bft) 97 %
17.07.2016 04:20 13,9 C 13,8 C 13,9 C 90 % 1021,4 hPa 0,0 l/m 1,6 km/h (1 Bft) O-NO 67 0 min 0,000 mm 0 W/m 12,3 C 13,9 C 6,4 km/h (2 Bft) 97 %
17.07.2016 04:30 14,1 C 13,9 C 14,1 C 90 % 1021,7 hPa 0,0 l/m 0,0 km/h (0 Bft) O-NO 67 0 min 0,000 mm 0 W/m 12,5 C 14,1 C 4,8 km/h (1 Bft) 98 %
17.07.2016 04:40 14,0 C 14,0 C 14,1 C 90 % 1021,7 hPa 0,0 l/m 0,0 km/h (0 Bft) N 0 0 min 0,000 mm 0 W/m 12,4 C 14,0 C 0,0 km/h (0 Bft) 98 %
17.07.2016 04:50 14,0 C 14,0 C 14,0 C 90 % 1021,6 hPa 0,0 l/m 0,0 km/h (0 Bft) N 0 0 min 0,000 mm 0 W/m 12,4 C 14,0 C 0,0 km/h (0 Bft) 97 %
17.07.2016 05:00 14,1 C 14,0 C 14,1 C 90 % 1021,6 hPa 0,0 l/m 0,0 km/h (0 Bft) N 0 0 min 0,000 mm 0 W/m 12,5 C 14,1 C 0,0 km/h (0 Bft) 98 %
17.07.2016 05:10 14,2 C 14,1 C 14,2 C 90 % 1021,6 hPa 0,0 l/m 0,0 km/h (0 Bft) N 0 0 min 0,000 mm 0 W/m 12,6 C 14,2 C 0,0 km/h (0 Bft) 97 %
17.07.2016 05:20 14,2 C 14,2 C 14,2 C 90 % 1021,7 hPa 0,0 l/m 0,0 km/h (0 Bft) N 0 0 min 0,000 mm 0 W/m 12,6 C 14,2 C 0,0 km/h (0 Bft) 98 %
17.07.2016 05:30 14,2 C 14,2 C 14,2 C 90 % 1021,6 hPa 0,0 l/m 0,0 km/h (0 Bft) N 0 0 min 0,000 mm 0 W/m 12,6 C 14,2 C 0,0 km/h (0 Bft) 99 %
17.07.2016 05:40 14,2 C 14,2 C 14,2 C 90 % 1021,7 hPa 0,0 l/m 0,0 km/h (0 Bft) N 0 0 min 0,000 mm 0 W/m 12,6 C 14,2 C 0,0 km/h (0 Bft) 99 %
17.07.2016 05:50 14,1 C 14,1 C 14,2 C 90 % 1021,7 hPa 0,0 l/m 0,0 km/h (0 Bft) N 0 0 min 0,000 mm 0 W/m 12,5 C 14,1 C 0,0 km/h (0 Bft) 98 %
17.07.2016 06:00 14,1 C 14,1 C 14,2 C 90 % 1021,9 hPa 0,0 l/m 0,0 km/h (0 Bft) N 0 0 min 0,000 mm 9 W/m 12,5 C 14,1 C 0,0 km/h (0 Bft) 100 %
17.07.2016 06:10 14,2 C 14,1 C 14,2 C 90 % 1021,9 hPa 0,0 l/m 0,0 km/h (0 Bft) N 0 0 min 0,000 mm 14 W/m 12,6 C 14,2 C 0,0 km/h (0 Bft) 100 %
17.07.2016 06:20 14,3 C 14,2 C 14,3 C 90 % 1021,9 hPa 0,0 l/m 0,0 km/h (0 Bft) N 0 0 min 0,000 mm 21 W/m 12,7 C 14,3 C 0,0 km/h (0 Bft) 99 %
17.07.2016 06:30 14,3 C 14,3 C 14,3 C 90 % 1021,9 hPa 0,0 l/m 0,0 km/h (0 Bft) N 0 0 min 0,000 mm 30 W/m 12,7 C 14,3 C 0,0 km/h (0 Bft) 100 %
17.07.2016 06:40 14,4 C 14,3 C 14,4 C 90 % 1022,0 hPa 0,0 l/m 0,0 km/h (0 Bft) N 0 0 min 0,000 mm 40 W/m 12,8 C 14,4 C 0,0 km/h (0 Bft) 100 %
17.07.2016 06:50 14,6 C 14,4 C 14,6 C 90 % 1022,0 hPa 0,0 l/m 0,0 km/h (0 Bft) N 0 0 min 0,000 mm 42 W/m 13,0 C 14,6 C 0,0 km/h (0 Bft) 100 %
17.07.2016 07:00 14,6 C 14,6 C 14,7 C 90 % 1022,0 hPa 0,0 l/m 0,0 km/h (0 Bft) N 0 0 min 0,025 mm 65 W/m 13,0 C 14,6 C 0,0 km/h (0 Bft) 100 %
17.07.2016 07:10 14,7 C 14,6 C 14,7 C 90 % 1022,0 hPa 0,0 l/m 0,0 km/h (0 Bft) N 0 0 min 0,000 mm 72 W/m 13,1 C 14,7 C 0,0 km/h (0 Bft) 100 %
17.07.2016 07:20 14,7 C 14,7 C 14,7 C 90 % 1022,0 hPa 0,0 l/m 0,0 km/h (0 Bft) N 0 0 min 0,000 mm 84 W/m 13,1 C 14,7 C 0,0 km/h (0 Bft) 100 %
17.07.2016 07:30 15,0 C 14,7 C 15,0 C 90 % 1022,1 hPa 0,0 l/m 0,0 km/h (0 Bft) O-NO 67 0 min 0,000 mm 98 W/m 13,4 C 15,0 C 1,6 km/h (1 Bft) 100 %
17.07.2016 07:40 15,1 C 15,0 C 15,1 C 90 % 1021,9 hPa 0,0 l/m 1,6 km/h (1 Bft) O 90 0 min 0,000 mm 111 W/m 13,5 C 15,1 C 6,4 km/h (2 Bft) 100 %
17.07.2016 07:50 15,3 C 15,1 C 15,3 C 90 % 1021,9 hPa 0,0 l/m 3,2 km/h (1 Bft) O 90 0 min 0,000 mm 111 W/m 13,7 C 15,3 C 6,4 km/h (2 Bft) 100 %
17.07.2016 08:00 15,6 C 15,3 C 15,6 C 90 % 1022,0 hPa 0,0 l/m 3,2 km/h (1 Bft) SO 135 0 min 0,051 mm 97 W/m 14,0 C 15,6 C 4,8 km/h (1 Bft) 100 %
17.07.2016 08:10 15,7 C 15,6 C 15,7 C 90 % 1022,1 hPa 0,0 l/m 1,6 km/h (1 Bft) SO 135 0 min 0,000 mm 95 W/m 14,1 C 15,7 C 6,4 km/h (2 Bft) 100 %
17.07.2016 08:20 15,8 C 15,7 C 15,8 C 89 % 1022,0 hPa 0,0 l/m 1,6 km/h (1 Bft) S-SO 157 10 min 0,000 mm 346 W/m 14,0 C 15,8 C 6,4 km/h (2 Bft) 100 %
17.07.2016 08:30 16,5 C 15,8 C 16,5 C 89 % 1022,0 hPa 0,0 l/m 0,0 km/h (0 Bft) N 0 10 min 0,000 mm 359 W/m 14,7 C 16,5 C 0,0 km/h (0 Bft) 100 %
17.07.2016 08:40 17,2 C 16,5 C 17,2 C 86 % 1022,1 hPa 0,0 l/m 0,0 km/h (0 Bft) N 0 10 min 0,000 mm 392 W/m 14,8 C 17,2 C 0,0 km/h (0 Bft) 100 %
17.07.2016 08:50 18,0 C 17,2 C 18,0 C 85 % 1022,1 hPa 0,0 l/m 0,0 km/h (0 Bft) N 0 10 min 0,000 mm 425 W/m 15,4 C 18,0 C 0,0 km/h (0 Bft) 100 %
17.07.2016 09:00 18,8 C 18,0 C 18,8 C 82 % 1022,0 hPa 0,0 l/m 0,0 km/h (0 Bft) S-SO 157 10 min 0,152 mm 461 W/m 15,7 C 18,8 C 1,6 km/h (1 Bft) 100 %
17.07.2016 09:10 19,4 C 18,8 C 19,4 C 81 % 1022,0 hPa 0,0 l/m 0,0 km/h (0 Bft) S-SO 157 10 min 0,000 mm 489 W/m 16,1 C 19,4 C 1,6 km/h (1 Bft) 99 %
17.07.2016 09:20 20,0 C 19,4 C 20,0 C 80 % 1021,9 hPa 0,0 l/m 0,0 km/h (0 Bft) SO 135 10 min 0,000 mm 512 W/m 16,4 C 20,0 C 1,6 km/h (1 Bft) 100 %
17.07.2016 09:30 20,7 C 20,0 C 20,7 C 79 % 1021,8 hPa 0,0 l/m 0,0 km/h (0 Bft) SO 135 10 min 0,000 mm 533 W/m 16,9 C 20,7 C 1,6 km/h (1 Bft) 100 %
17.07.2016 09:40 21,2 C 20,7 C 21,2 C 76 % 1021,6 hPa 0,0 l/m 0,0 km/h (0 Bft) S 180 10 min 0,000 mm 536 W/m 16,8 C 21,2 C 1,6 km/h (1 Bft) 100 %
17.07.2016 09:50 21,6 C 21,2 C 21,6 C 78 % 1021,8 hPa 0,0 l/m 0,0 km/h (0 Bft) S 180 10 min 0,000 mm 564 W/m 17,6 C 21,6 C 1,6 km/h (1 Bft) 99 %
17.07.2016 10:00 21,8 C 21,6 C 21,8 C 74 % 1021,6 hPa 0,0 l/m 0,0 km/h (0 Bft) S-SO 157 10 min 0,305 mm 606 W/m 17,0 C 21,8 C 1,6 km/h (1 Bft) 100 %
17.07.2016 10:10 22,1 C 21,8 C 22,1 C 74 % 1021,6 hPa 0,0 l/m 1,6 km/h (1 Bft) S-SW 202 10 min 0,000 mm 645 W/m 17,2 C 22,1 C 11,3 km/h (2 Bft) 99 %
17.07.2016 10:20 22,8 C 22,1 C 22,8 C 74 % 1021,7 hPa 0,0 l/m 1,6 km/h (1 Bft) SW 225 10 min 0,000 mm 675 W/m 17,9 C 22,8 C 9,7 km/h (2 Bft) 100 %
17.07.2016 10:30 23,4 C 22,8 C 23,4 C 71 % 1021,6 hPa 0,0 l/m 1,6 km/h (1 Bft) W-NW 292 10 min 0,000 mm 700 W/m 17,8 C 23,4 C 9,7 km/h (2 Bft) 100 %
17.07.2016 10:40 24,0 C 23,4 C 24,0 C 72 % 1021,6 hPa 0,0 l/m 3,2 km/h (1 Bft) S-SW 202 10 min 0,000 mm 680 W/m 18,6 C 24,0 C 14,5 km/h (3 Bft) 99 %
17.07.2016 10:50 24,2 C 23,9 C 24,2 C 67 % 1021,6 hPa 0,0 l/m 3,2 km/h (1 Bft) W-NW 292 10 min 0,000 mm 700 W/m 17,7 C 24,2 C 9,7 km/h (2 Bft) 100 %
17.07.2016 11:00 23,8 C 23,8 C 24,2 C 70 % 1021,7 hPa 0,0 l/m 1,6 km/h (1 Bft) W-NW 292 10 min 0,381 mm 766 W/m 18,0 C 23,8 C 9,7 km/h (2 Bft) 99 %
17.07.2016 11:10 24,3 C 23,8 C 24,3 C 67 % 1021,5 hPa 0,0 l/m 1,6 km/h (1 Bft) W 270 10 min 0,000 mm 782 W/m 17,8 C 24,3 C 9,7 km/h (2 Bft) 100 %
17.07.2016 11:20 24,2 C 24,2 C 24,3 C 68 % 1021,3 hPa 0,0 l/m 4,8 km/h (1 Bft) W-NW 292 10 min 0,000 mm 763 W/m 17,9 C 24,2 C 11,3 km/h (2 Bft) 100 %
17.07.2016 11:30 24,4 C 24,2 C 24,4 C 64 % 1021,3 hPa 0,0 l/m 1,6 km/h (1 Bft) W 270 10 min 0,000 mm 814 W/m 17,1 C 24,4 C 9,7 km/h (2 Bft) 100 %
17.07.2016 11:40 24,6 C 24,4 C 24,7 C 63 % 1021,1 hPa 0,0 l/m 6,4 km/h (2 Bft) W 270 10 min 0,000 mm 902 W/m 17,1 C 24,6 C 17,7 km/h (3 Bft) 100 %
17.07.2016 11:50 24,2 C 24,2 C 24,6 C 65 % 1021,1 hPa 0,0 l/m 4,8 km/h (1 Bft) W-SW 247 10 min 0,000 mm 404 W/m 17,2 C 24,2 C 16,1 km/h (3 Bft) 98 %
17.07.2016 12:00 24,6 C 24,1 C 24,6 C 65 % 1021,0 hPa 0,0 l/m 1,6 km/h (1 Bft) W-SW 247 10 min 0,381 mm 1053 W/m 17,6 C 24,6 C 12,9 km/h (3 Bft) 97 %
17.07.2016 12:10 25,1 C 24,6 C 25,1 C 62 % 1021,0 hPa 0,0 l/m 3,2 km/h (1 Bft) W-SW 247 10 min 0,000 mm 612 W/m 17,3 C 25,1 C 16,1 km/h (3 Bft) 98 %
17.07.2016 12:20 25,3 C 25,1 C 25,3 C 63 % 1020,9 hPa 0,0 l/m 6,4 km/h (2 Bft) W-SW 247 10 min 0,000 mm 1007 W/m 17,7 C 25,3 C 17,7 km/h (3 Bft) 98 %
17.07.2016 12:30 25,4 C 25,3 C 25,4 C 64 % 1021,0 hPa 0,0 l/m 1,6 km/h (1 Bft) NW 315 10 min 0,000 mm 596 W/m 18,1 C 25,4 C 17,7 km/h (3 Bft) 98 %
17.07.2016 12:40 24,8 C 24,8 C 25,4 C 65 % 1021,1 hPa 0,0 l/m 1,6 km/h (1 Bft) W-NW 292 10 min 0,000 mm 288 W/m 17,8 C 24,8 C 8,0 km/h (2 Bft) 98 %
17.07.2016 12:50 24,6 C 24,6 C 24,8 C 66 % 1020,9 hPa 0,0 l/m 3,2 km/h (1 Bft) W-NW 292 10 min 0,000 mm 434 W/m 17,8 C 24,6 C 11,3 km/h (2 Bft) 98 %
17.07.2016 13:00 24,4 C 24,4 C 24,6 C 66 % 1020,9 hPa 0,0 l/m 3,2 km/h (1 Bft) NW 315 10 min 0,305 mm 380 W/m 17,6 C 24,4 C 14,5 km/h (3 Bft) 97 %
17.07.2016 13:10 24,4 C 24,3 C 24,4 C 67 % 1020,9 hPa 0,0 l/m 3,2 km/h (1 Bft) W-SW 247 10 min 0,000 mm 717 W/m 17,9 C 24,4 C 11,3 km/h (2 Bft) 97 %
17.07.2016 13:20 24,8 C 24,4 C 24,8 C 64 % 1020,8 hPa 0,0 l/m 3,2 km/h (1 Bft) W-SW 247 10 min 0,000 mm 492 W/m 17,5 C 24,8 C 14,5 km/h (3 Bft) 97 %
17.07.2016 13:30 25,0 C 24,8 C 25,0 C 64 % 1020,7 hPa 0,0 l/m 3,2 km/h (1 Bft) W 270 10 min 0,000 mm 454 W/m 17,7 C 25,0 C 8,0 km/h (2 Bft) 98 %
17.07.2016 13:40 24,8 C 24,8 C 25,0 C 64 % 1020,6 hPa 0,0 l/m 4,8 km/h (1 Bft) NW 315 10 min 0,000 mm 278 W/m 17,5 C 24,8 C 16,1 km/h (3 Bft) 97 %
17.07.2016 13:50 24,4 C 24,4 C 24,8 C 64 % 1020,5 hPa 0,0 l/m 4,8 km/h (1 Bft) NW 315 10 min 0,000 mm 232 W/m 17,1 C 24,4 C 11,3 km/h (2 Bft) 98 %
17.07.2016 14:00 24,3 C 24,2 C 24,4 C 63 % 1020,5 hPa 0,0 l/m 3,2 km/h (1 Bft) W-NW 292 10 min 0,229 mm 316 W/m 16,8 C 24,3 C 11,3 km/h (2 Bft) 98 %
17.07.2016 14:10 24,7 C 24,3 C 24,7 C 62 % 1020,4 hPa 0,0 l/m 1,6 km/h (1 Bft) W 270 10 min 0,000 mm 1053 W/m 16,9 C 24,7 C 9,7 km/h (2 Bft) 97 %
17.07.2016 14:20 25,2 C 24,3 C 25,2 C 63 % 1020,3 hPa 0,0 l/m 2,9 km/h (1 Bft) NW 317 10 min 0,000 mm 221 W/m 17,6 C 25,2 C 12,9 km/h (3 Bft) 100 %
17.07.2016 14:30 25,0 C 25,0 C 25,3 C 63 % 1020,2 hPa 0,0 l/m 2,8 km/h (1 Bft) NW 313 10 min 0,000 mm 163 W/m 17,5 C 25,0 C 11,3 km/h (2 Bft) 100 %
17.07.2016 14:40 24,6 C 24,6 C 25,0 C 62 % 1020,1 hPa 0,0 l/m 4,5 km/h (1 Bft) W 271 10 min 0,000 mm 316 W/m 16,8 C 24,6 C 14,5 km/h (3 Bft) 100 %
17.07.2016 14:50 24,6 C 24,6 C 24,6 C 64 % 1020,2 hPa 0,0 l/m 4,9 km/h (1 Bft) W-NW 299 10 min 0,000 mm 301 W/m 17,3 C 24,6 C 14,5 km/h (3 Bft) 100 %
17.07.2016 15:00 24,7 C 24,6 C 24,7 C 64 % 1020,1 hPa 0,0 l/m 7,0 km/h (2 Bft) NW 306 10 min 0,229 mm 396 W/m 17,4 C 24,5 C 17,7 km/h (3 Bft) 100 %
17.07.2016 15:10 24,9 C 24,7 C 24,9 C 64 % 1020,0 hPa 0,0 l/m 10,7 km/h (2 Bft) NW 309 10 min 0,000 mm 512 W/m 17,6 C 23,9 C 20,9 km/h (4 Bft) 100 %
17.07.2016 15:20 25,3 C 24,9 C 25,3 C 63 % 1019,8 hPa 0,0 l/m 8,2 km/h (2 Bft) NW 305 10 min 0,000 mm 272 W/m 17,7 C 24,9 C 19,3 km/h (3 Bft) 100 %
17.07.2016 15:30 25,1 C 25,1 C 25,3 C 64 % 1019,9 hPa 0,0 l/m 9,6 km/h (2 Bft) W-NW 300 10 min 0,000 mm 253 W/m 17,8 C 24,4 C 17,7 km/h (3 Bft) 100 %
17.07.2016 15:40 24,7 C 24,7 C 25,1 C 63 % 1020,0 hPa 0,0 l/m 9,4 km/h (2 Bft) W-NW 298 10 min 0,000 mm 322 W/m 17,2 C 24,0 C 19,3 km/h (3 Bft) 100 %
17.07.2016 15:50 24,7 C 24,7 C 24,7 C 64 % 1019,9 hPa 0,0 l/m 4,6 km/h (1 Bft) W 275 10 min 0,000 mm 297 W/m 17,4 C 24,7 C 19,3 km/h (3 Bft) 100 %
17.07.2016 16:00 24,7 C 24,6 C 24,7 C 65 % 1019,9 hPa 0,0 l/m 4,3 km/h (1 Bft) NW 309 10 min 0,280 mm 350 W/m 17,7 C 24,7 C 16,1 km/h (3 Bft) 100 %
17.07.2016 16:10 24,7 C 24,7 C 24,8 C 63 % 1019,9 hPa 0,0 l/m 5,0 km/h (1 Bft) NW 304 10 min 0,000 mm 255 W/m 17,2 C 24,7 C 16,1 km/h (3 Bft) 100 %
17.07.2016 16:20 24,6 C 24,6 C 24,7 C 65 % 1019,9 hPa 0,0 l/m 4,1 km/h (1 Bft) W-NW 286 10 min 0,000 mm 211 W/m 17,6 C 24,6 C 17,7 km/h (3 Bft) 100 %
17.07.2016 16:30 24,4 C 24,4 C 24,6 C 65 % 1019,9 hPa 0,0 l/m 3,1 km/h (1 Bft) W-NW 302 10 min 0,000 mm 362 W/m 17,4 C 24,4 C 11,3 km/h (2 Bft) 100 %
17.07.2016 16:40 24,6 C 24,4 C 24,6 C 65 % 1019,8 hPa 0,0 l/m 3,2 km/h (1 Bft) W-NW 294 10 min 0,000 mm 272 W/m 17,6 C 24,6 C 17,7 km/h (3 Bft) 100 %
17.07.2016 16:50 24,3 C 24,3 C 24,6 C 66 % 1019,6 hPa 0,0 l/m 6,0 km/h (2 Bft) W 270 10 min 0,000 mm 167 W/m 17,5 C 24,3 C 17,7 km/h (3 Bft) 100 %
17.07.2016 17:00 24,2 C 24,2 C 24,3 C 66 % 1019,7 hPa 0,0 l/m 3,3 km/h (1 Bft) W-NW 284 10 min 0,177 mm 156 W/m 17,4 C 24,2 C 16,1 km/h (3 Bft) 100 %
17.07.2016 17:10 24,1 C 24,1 C 24,2 C 68 % 1019,6 hPa 0,0 l/m 3,1 km/h (1 Bft) W-NW 300 10 min 0,000 mm 211 W/m 17,8 C 24,1 C 11,3 km/h (2 Bft) 100 %
17.07.2016 17:20 24,2 C 24,1 C 24,2 C 67 % 1019,5 hPa 0,0 l/m 2,8 km/h (1 Bft) W 277 10 min 0,000 mm 200 W/m 17,7 C 24,2 C 16,1 km/h (3 Bft) 100 %
17.07.2016 17:30 24,1 C 24,1 C 24,2 C 67 % 1019,5 hPa 0,0 l/m 1,2 km/h (1 Bft) W-NW 294 10 min 0,000 mm 153 W/m 17,6 C 24,1 C 8,0 km/h (2 Bft) 100 %
17.07.2016 17:40 24,0 C 24,0 C 24,1 C 67 % 1019,3 hPa 0,0 l/m 2,8 km/h (1 Bft) W-NW 284 0 min 0,000 mm 123 W/m 17,5 C 24,0 C 12,9 km/h (3 Bft) 100 %
17.07.2016 17:50 24,1 C 24,0 C 24,1 C 70 % 1019,4 hPa 0,0 l/m 2,7 km/h (1 Bft) W-SW 255 0 min 0,000 mm 128 W/m 18,3 C 24,1 C 11,3 km/h (2 Bft) 100 %
17.07.2016 18:00 24,6 C 24,1 C 24,6 C 64 % 1019,3 hPa 0,0 l/m 4,6 km/h (1 Bft) W 261 0 min 0,102 mm 120 W/m 17,3 C 24,6 C 14,5 km/h (3 Bft) 100 %
17.07.2016 18:10 24,6 C 24,6 C 24,6 C 68 % 1019,2 hPa 0,0 l/m 2,6 km/h (1 Bft) W-SW 257 0 min 0,000 mm 123 W/m 18,3 C 24,6 C 16,1 km/h (3 Bft) 100 %
17.07.2016 18:20 24,7 C 24,6 C 24,7 C 67 % 1019,2 hPa 0,0 l/m 2,9 km/h (1 Bft) W-NW 284 0 min 0,000 mm 114 W/m 18,1 C 24,7 C 11,3 km/h (2 Bft) 99 %
17.07.2016 18:30 24,8 C 24,7 C 24,8 C 63 % 1019,1 hPa 0,0 l/m 3,9 km/h (1 Bft) W-NW 303 0 min 0,000 mm 105 W/m 17,3 C 24,8 C 11,3 km/h (2 Bft) 100 %
17.07.2016 18:40 24,7 C 24,7 C 24,8 C 64 % 1019,1 hPa 0,0 l/m 5,2 km/h (1 Bft) W-NW 302 0 min 0,000 mm 77 W/m 17,4 C 24,7 C 16,1 km/h (3 Bft) 100 %
17.07.2016 18:50 24,5 C 24,5 C 24,7 C 65 % 1019,1 hPa 0,0 l/m 3,3 km/h (1 Bft) NW 319 0 min 0,000 mm 63 W/m 17,5 C 24,5 C 16,1 km/h (3 Bft) 100 %
17.07.2016 19:00 24,4 C 24,4 C 24,5 C 64 % 1019,2 hPa 0,0 l/m 1,6 km/h (1 Bft) W-NW 297 0 min 0,000 mm 56 W/m 17,1 C 24,4 C 11,3 km/h (2 Bft) 100 %
17.07.2016 19:10 24,3 C 24,3 C 24,4 C 65 % 1019,2 hPa 0,0 l/m 1,3 km/h (1 Bft) W-NW 292 0 min 0,076 mm 49 W/m 17,3 C 24,3 C 14,5 km/h (3 Bft) 100 %
17.07.2016 19:20 24,2 C 24,1 C 24,3 C 67 % 1019,2 hPa 0,0 l/m 0,7 km/h (0 Bft) W 264 0 min 0,000 mm 51 W/m 17,7 C 24,2 C 9,7 km/h (2 Bft) 100 %
17.07.2016 19:30 23,9 C 23,9 C 24,2 C 67 % 1019,1 hPa 0,0 l/m 2,0 km/h (1 Bft) W-SW 251 0 min 0,000 mm 37 W/m 17,4 C 23,9 C 8,0 km/h (2 Bft) 100 %
17.07.2016 19:40 23,7 C 23,7 C 23,9 C 68 % 1019,1 hPa 0,0 l/m 0,8 km/h (0 Bft) W-SW 255 0 min 0,000 mm 39 W/m 17,4 C 23,7 C 6,4 km/h (2 Bft) 100 %
17.07.2016 19:50 23,5 C 23,5 C 23,7 C 70 % 1019,2 hPa 0,0 l/m 0,0 km/h (0 Bft) W-SW 255 0 min 0,000 mm 60 W/m 17,7 C 23,5 C 0,0 km/h (0 Bft) 100 %
17.07.2016 20:00 23,3 C 23,3 C 23,5 C 70 % 1019,1 hPa 0,0 l/m 0,0 km/h (0 Bft) W-SW 254 0 min 0,000 mm 44 W/m 17,5 C 23,3 C 1,6 km/h (1 Bft) 100 %
17.07.2016 20:10 23,2 C 23,2 C 23,3 C 71 % 1019,1 hPa 0,0 l/m 0,1 km/h (0 Bft) W-SW 254 0 min 0,051 mm 32 W/m 17,6 C 23,2 C 3,2 km/h (1 Bft) 100 %
17.07.2016 20:20 23,0 C 23,0 C 23,2 C 71 % 1019,1 hPa 0,0 l/m 0,0 km/h (0 Bft) W-SW 254 0 min 0,000 mm 21 W/m 17,4 C 23,0 C 1,6 km/h (1 Bft) 100 %
17.07.2016 20:30 22,7 C 22,7 C 23,0 C 72 % 1019,1 hPa 0,0 l/m 0,0 km/h (0 Bft) W-SW 254 0 min 0,000 mm 25 W/m 17,4 C 22,7 C 0,0 km/h (0 Bft) 100 %
17.07.2016 20:40 22,4 C 22,4 C 22,7 C 74 % 1019,1 hPa 0,0 l/m 0,0 km/h (0 Bft) W-SW 254 0 min 0,000 mm 18 W/m 17,5 C 22,4 C 0,0 km/h (0 Bft) 100 %
17.07.2016 20:50 22,1 C 22,1 C 22,4 C 75 % 1019,2 hPa 0,0 l/m 0,0 km/h (0 Bft) W-SW 254 0 min 0,000 mm 12 W/m 17,5 C 22,1 C 0,0 km/h (0 Bft) 100 %
17.07.2016 21:00 21,8 C 21,8 C 22,1 C 73 % 1019,2 hPa 0,0 l/m 0,0 km/h (0 Bft) W-SW 254 0 min 0,000 mm 7 W/m 16,7 C 21,8 C 0,0 km/h (0 Bft) 100 %
17.07.2016 21:10 21,6 C 21,6 C 21,8 C 74 % 1019,2 hPa 0,0 l/m 0,0 km/h (0 Bft) W-SW 247 0 min 0,000 mm 5 W/m 16,8 C 21,6 C 1,6 km/h (1 Bft) 97 %
17.07.2016 21:20 21,5 C 21,5 C 21,6 C 74 % 1019,1 hPa 0,0 l/m 0,0 km/h (0 Bft) W-SW 247 0 min 0,000 mm 0 W/m 16,7 C 21,5 C 3,2 km/h (1 Bft) 98 %
17.07.2016 21:30 21,4 C 21,4 C 21,5 C 74 % 1019,2 hPa 0,0 l/m 0,0 km/h (0 Bft) W-SW 247 0 min 0,000 mm 0 W/m 16,6 C 21,4 C 3,2 km/h (1 Bft) 98 %
17.07.2016 21:40 21,3 C 21,3 C 21,4 C 75 % 1019,3 hPa 0,0 l/m 0,0 km/h (0 Bft) N 0 0 min 0,000 mm 0 W/m 16,7 C 21,3 C 0,0 km/h (0 Bft) 97 %
17.07.2016 21:50 21,2 C 21,2 C 21,3 C 77 % 1019,6 hPa 0,0 l/m 0,0 km/h (0 Bft) N 0 0 min 0,000 mm 0 W/m 17,0 C 21,2 C 0,0 km/h (0 Bft) 98 %
17.07.2016 22:00 20,9 C 20,9 C 21,2 C 77 % 1019,5 hPa 0,0 l/m 0,0 km/h (0 Bft) N 0 0 min 0,000 mm 0 W/m 16,7 C 20,9 C 0,0 km/h (0 Bft) 97 %
17.07.2016 22:10 20,7 C 20,7 C 20,9 C 78 % 1019,6 hPa 0,0 l/m 0,0 km/h (0 Bft) N 0 0 min 0,000 mm 0 W/m 16,7 C 20,7 C 0,0 km/h (0 Bft) 98 %
17.07.2016 22:20 20,3 C 20,3 C 20,7 C 78 % 1019,6 hPa 0,0 l/m 0,0 km/h (0 Bft) N 0 0 min 0,000 mm 0 W/m 16,3 C 20,3 C 0,0 km/h (0 Bft) 98 %
17.07.2016 22:30 20,1 C 20,1 C 20,3 C 80 % 1019,7 hPa 0,0 l/m 0,0 km/h (0 Bft) N 0 0 min 0,000 mm 0 W/m 16,5 C 20,1 C 0,0 km/h (0 Bft) 97 %
17.07.2016 22:40 19,8 C 19,8 C 20,1 C 81 % 1019,7 hPa 0,0 l/m 0,0 km/h (0 Bft) N 0 0 min 0,000 mm 0 W/m 16,4 C 19,8 C 0,0 km/h (0 Bft) 98 %
17.07.2016 22:50 19,8 C 19,8 C 19,8 C 82 % 1019,7 hPa 0,0 l/m 0,0 km/h (0 Bft) N 0 0 min 0,000 mm 0 W/m 16,6 C 19,8 C 0,0 km/h (0 Bft) 97 %
17.07.2016 23:00 19,7 C 19,7 C 19,8 C 82 % 1019,7 hPa 0,0 l/m 0,0 km/h (0 Bft) N 0 0 min 0,025 mm 0 W/m 16,5 C 19,7 C 0,0 km/h (0 Bft) 98 %
17.07.2016 23:10 19,7 C 19,7 C 19,7 C 83 % 1019,8 hPa 0,0 l/m 0,0 km/h (0 Bft) N 0 0 min 0,000 mm 0 W/m 16,7 C 19,7 C 0,0 km/h (0 Bft) 97 %
17.07.2016 23:20 19,6 C 19,6 C 19,7 C 84 % 1019,8 hPa 0,0 l/m 0,0 km/h (0 Bft) N 0 0 min 0,000 mm 0 W/m 16,8 C 19,6 C 0,0 km/h (0 Bft) 97 %
17.07.2016 23:30 19,6 C 19,6 C 19,6 C 84 % 1019,8 hPa 0,0 l/m 0,0 km/h (0 Bft) N 0 0 min 0,000 mm 0 W/m 16,8 C 19,6 C 0,0 km/h (0 Bft) 98 %
17.07.2016 23:40 19,5 C 19,5 C 19,6 C 84 % 1019,8 hPa 0,0 l/m 0,0 km/h (0 Bft) N 0 0 min 0,000 mm 0 W/m 16,7 C 19,5 C 0,0 km/h (0 Bft) 98 %
17.07.2016 23:50 19,4 C 19,4 C 19,5 C 85 % 1019,8 hPa 0,0 l/m 0,0 km/h (0 Bft) W-SW 247 0 min 0,000 mm 0 W/m 16,8 C 19,4 C 1,6 km/h (1 Bft) 98 %
_ Min-Zeit 04:00 04:00 04:10 12:10 18:30 - 00:00 - - - - - 04:00 04:00 00:10 00:10
Minimum _ 13,8 C 13,8 C 13,8 C 62 % 1019,1 hPa - 0,0 km/h (0 Bft) - - - - - 12,0 C 13,8 C 0,0 km/h (0 Bft) 96 %
_ Max-Zeit 12:30 12:30 12:30 04:20 00:00 00:00 15:10 - - 08:20 11:00 12:00 10:40 12:30 15:10 06:10
Maximum _ 25,4 C 25,3 C 25,4 C 90 % 1022,7 hPa 0,0 l/m 10,7 km/h
NW (2 Bft)
- - 10 min 0,381 mm 1053 W/m 18,6 C 25,4 C 20,9 km/h
W (4 Bft)
100 %
Durchschnitt _ 20,2 C 20,1 C 20,3 C 77 % 1020,9 hPa #0,0 l/m 1,6 km/h (1 Bft) W-NW - #9:20 h #2,819 mm 310 W/m 15,7 C 20,2 C 6,0 km/h (2 Bft) 99 %
PRIVATE WETTERSTATION BILLIGHEIM-ALLFELD - www.neckar-odenwald-wetter.de - Holger Sonntag